createdAt,value
2023-06-21T00:00:09.621Z,92770.00
2023-06-21T00:01:09.667Z,92772.00
2023-06-21T00:02:09.638Z,92772.00
2023-06-21T00:03:09.792Z,92774.00
2023-06-21T00:04:09.707Z,92776.00
2023-06-21T00:05:09.661Z,92776.00
2023-06-21T00:06:09.695Z,92776.00
2023-06-21T00:07:09.688Z,92776.00
2023-06-21T00:08:09.694Z,92776.00
2023-06-21T00:09:09.695Z,92774.00
2023-06-21T00:10:09.741Z,92774.00
2023-06-21T00:11:09.712Z,92774.00
2023-06-21T00:12:09.723Z,92776.00
2023-06-21T00:13:09.741Z,92774.00
2023-06-21T00:14:09.748Z,92776.00
2023-06-21T00:15:09.752Z,92772.00
2023-06-21T00:16:09.759Z,92774.00
2023-06-21T00:17:09.764Z,92770.00
2023-06-21T00:18:09.846Z,92770.00
2023-06-21T00:19:09.792Z,92772.00
2023-06-21T00:20:09.795Z,92772.00
2023-06-21T00:21:09.794Z,92770.00
2023-06-21T00:22:09.826Z,92766.00
2023-06-21T00:23:09.878Z,92766.00
2023-06-21T00:24:09.854Z,92762.00
2023-06-21T00:25:09.838Z,92762.00
2023-06-21T00:26:09.854Z,92760.00
2023-06-21T00:27:09.858Z,92762.00
2023-06-21T00:28:09.877Z,92760.00
2023-06-21T00:29:09.892Z,92758.00
2023-06-21T00:30:09.894Z,92764.00
2023-06-21T00:31:10.030Z,92766.00
2023-06-21T00:32:09.919Z,92768.00
2023-06-21T00:33:09.922Z,92766.00
2023-06-21T00:34:09.931Z,92768.00
2023-06-21T00:35:09.945Z,92770.00
2023-06-21T00:36:09.955Z,92774.00
2023-06-21T00:37:09.972Z,92776.00
2023-06-21T00:38:09.984Z,92772.00
2023-06-21T00:39:09.993Z,92770.00
2023-06-21T00:40:09.990Z,92770.00
2023-06-21T00:41:10.009Z,92770.00
2023-06-21T00:42:10.037Z,92774.00
2023-06-21T00:43:10.035Z,92776.00
2023-06-21T00:44:10.054Z,92780.00
2023-06-21T00:45:10.091Z,92774.00
2023-06-21T00:46:10.087Z,92776.00
2023-06-21T00:47:10.091Z,92772.00
2023-06-21T00:48:10.132Z,92776.00
2023-06-21T00:49:10.110Z,92780.00
2023-06-21T00:50:10.146Z,92774.00
2023-06-21T00:51:10.130Z,92774.00
2023-06-21T00:52:10.149Z,92778.00
2023-06-21T00:53:10.157Z,92780.00
2023-06-21T00:54:10.169Z,92786.00
2023-06-21T00:55:10.195Z,92778.00
2023-06-21T00:56:10.193Z,92780.00
2023-06-21T00:57:10.191Z,92784.00
2023-06-21T00:58:10.210Z,92787.00
2023-06-21T00:59:10.214Z,92791.00
2023-06-21T01:00:10.219Z,92795.00
2023-06-21T01:01:10.235Z,92791.00
2023-06-21T01:02:10.399Z,92797.00
2023-06-21T01:03:10.242Z,92793.00
2023-06-21T01:04:10.259Z,92789.00
2023-06-21T01:05:10.298Z,92795.00
2023-06-21T01:06:10.280Z,92797.00
2023-06-21T01:07:10.291Z,92795.00
2023-06-21T01:08:10.295Z,92793.00
2023-06-21T01:09:10.304Z,92789.00
2023-06-21T01:10:10.319Z,92791.00
2023-06-21T01:11:10.325Z,92797.00
2023-06-21T01:12:10.328Z,92797.00
2023-06-21T01:13:10.293Z,92799.00
2023-06-21T01:14:10.284Z,92801.00
2023-06-21T01:15:10.272Z,92799.00
2023-06-21T01:16:10.264Z,92795.00
2023-06-21T01:17:10.255Z,92797.00
2023-06-21T01:18:10.235Z,92799.00
2023-06-21T01:19:10.224Z,92803.00
2023-06-21T01:20:10.226Z,92801.00
2023-06-21T01:21:10.211Z,92799.00
2023-06-21T01:22:10.189Z,92799.00
2023-06-21T01:23:10.176Z,92799.00
2023-06-21T01:24:10.180Z,92801.00
2023-06-21T01:25:10.152Z,92791.00
2023-06-21T01:26:10.140Z,92803.00
2023-06-21T01:27:10.132Z,92801.00
2023-06-21T01:28:10.126Z,92797.00
2023-06-21T01:29:10.100Z,92799.00
2023-06-21T01:30:10.102Z,92801.00
2023-06-21T01:31:10.069Z,92801.00
2023-06-21T01:32:10.047Z,92799.00
2023-06-21T01:33:10.087Z,92807.00
2023-06-21T01:34:10.011Z,92813.00
2023-06-21T01:35:11.168Z,92817.00
2023-06-21T01:36:09.987Z,92809.00
2023-06-21T01:37:10.042Z,92807.00
2023-06-21T01:38:09.956Z,92807.00
2023-06-21T01:39:09.957Z,92811.00
2023-06-21T01:40:09.932Z,92809.00
2023-06-21T01:41:09.937Z,92811.00
2023-06-21T01:42:09.902Z,92811.00
2023-06-21T01:43:09.887Z,92815.00
2023-06-21T01:44:09.888Z,92805.00
2023-06-21T01:45:09.867Z,92809.00
2023-06-21T01:46:09.887Z,92809.00
2023-06-21T01:47:09.849Z,92809.00
2023-06-21T01:48:09.833Z,92813.00
2023-06-21T01:49:09.822Z,92813.00
2023-06-21T01:50:09.817Z,92807.00
2023-06-21T01:51:09.802Z,92809.00
2023-06-21T01:52:09.784Z,92817.00
2023-06-21T01:53:09.766Z,92811.00
2023-06-21T01:54:09.764Z,92815.00
2023-06-21T01:55:09.752Z,92813.00
2023-06-21T01:56:09.746Z,92805.00
2023-06-21T01:57:09.730Z,92803.00
2023-06-21T01:58:09.731Z,92813.00
2023-06-21T01:59:09.696Z,92815.00
2023-06-21T02:00:09.692Z,92819.00
2023-06-21T02:01:09.676Z,92823.00
2023-06-21T02:02:09.741Z,92825.00
2023-06-21T02:03:09.674Z,92819.00
2023-06-21T02:04:09.646Z,92813.00
2023-06-21T02:05:09.647Z,92817.00
2023-06-21T02:06:09.613Z,92817.00
2023-06-21T02:07:09.606Z,92821.00
2023-06-21T02:08:09.588Z,92825.00
2023-06-21T02:09:09.587Z,92823.00
2023-06-21T02:10:09.573Z,92832.00
2023-06-21T02:11:09.559Z,92834.00
2023-06-21T02:12:09.556Z,92834.00
2023-06-21T02:13:09.535Z,92836.00
2023-06-21T02:14:09.524Z,92836.00
2023-06-21T02:15:09.510Z,92844.00
2023-06-21T02:16:09.497Z,92838.00
2023-06-21T02:17:09.486Z,92836.00
2023-06-21T02:18:09.472Z,92836.00
2023-06-21T02:19:09.463Z,92842.00
2023-06-21T02:20:09.450Z,92848.00
2023-06-21T02:21:09.440Z,92836.00
2023-06-21T02:22:09.420Z,92844.00
2023-06-21T02:23:09.410Z,92836.00
2023-06-21T02:24:09.496Z,92844.00
2023-06-21T02:25:09.397Z,92844.00
2023-06-21T02:26:10.284Z,92838.00
2023-06-21T02:27:09.372Z,92842.00
2023-06-21T02:28:09.360Z,92846.00
2023-06-21T02:29:09.354Z,92844.00
2023-06-21T02:30:09.347Z,92848.00
2023-06-21T02:31:09.322Z,92848.00
2023-06-21T02:32:09.314Z,92844.00
2023-06-21T02:33:09.316Z,92846.00
2023-06-21T02:34:09.351Z,92852.00
2023-06-21T02:35:09.264Z,92852.00
2023-06-21T02:36:09.253Z,92854.00
2023-06-21T02:37:09.249Z,92858.00
2023-06-21T02:38:09.244Z,92856.00
2023-06-21T02:39:09.225Z,92858.00
2023-06-21T02:40:09.213Z,92860.00
2023-06-21T02:41:09.199Z,92858.00
2023-06-21T02:42:09.195Z,92858.00
2023-06-21T02:43:09.184Z,92872.00
2023-06-21T02:44:09.167Z,92864.00
2023-06-21T02:45:09.158Z,92858.00
2023-06-21T02:46:09.189Z,92860.00
2023-06-21T02:47:09.132Z,92852.00
2023-06-21T02:48:09.164Z,92858.00
2023-06-21T02:49:09.102Z,92860.00
2023-06-21T02:50:09.088Z,92856.00
2023-06-21T02:51:09.077Z,92860.00
2023-06-21T02:52:09.071Z,92864.00
2023-06-21T02:53:09.047Z,92864.00
2023-06-21T02:54:09.041Z,92858.00
2023-06-21T02:55:09.019Z,92860.00
2023-06-21T02:56:09.008Z,92866.00
2023-06-21T02:57:09.001Z,92860.00
2023-06-21T02:58:08.977Z,92858.00
2023-06-21T02:59:08.958Z,92864.00
2023-06-21T03:00:08.948Z,92866.00
2023-06-21T03:01:08.981Z,92866.00
2023-06-21T03:02:08.930Z,92870.00
2023-06-21T03:03:09.014Z,92872.00
2023-06-21T03:04:08.965Z,92874.00
2023-06-21T03:05:08.890Z,92874.00
2023-06-21T03:06:08.881Z,92870.00
2023-06-21T03:07:08.880Z,92881.00
2023-06-21T03:08:08.857Z,92874.00
2023-06-21T03:09:08.865Z,92876.00
2023-06-21T03:10:08.838Z,92866.00
2023-06-21T03:11:08.832Z,92866.00
2023-06-21T03:12:08.929Z,92874.00
2023-06-21T03:13:08.816Z,92887.00
2023-06-21T03:14:08.814Z,92885.00
2023-06-21T03:15:08.815Z,92881.00
2023-06-21T03:16:08.862Z,92885.00
2023-06-21T03:17:08.779Z,92881.00
2023-06-21T03:18:08.808Z,92879.00
2023-06-21T03:19:08.817Z,92883.00
2023-06-21T03:20:08.727Z,92887.00
2023-06-21T03:21:08.723Z,92876.00
2023-06-21T03:22:08.776Z,92883.00
2023-06-21T03:23:08.713Z,92889.00
2023-06-21T03:24:08.772Z,92889.00
2023-06-21T03:25:08.679Z,92891.00
2023-06-21T03:26:08.660Z,92891.00
2023-06-21T03:27:08.642Z,92893.00
2023-06-21T03:28:08.623Z,92893.00
2023-06-21T03:29:08.610Z,92895.00
2023-06-21T03:30:08.609Z,92893.00
2023-06-21T03:31:08.621Z,92897.00
2023-06-21T03:32:08.580Z,92897.00
2023-06-21T03:33:08.560Z,92905.00
2023-06-21T03:34:08.544Z,92905.00
2023-06-21T03:35:08.528Z,92901.00
2023-06-21T03:36:08.512Z,92905.00
2023-06-21T03:37:08.498Z,92905.00
2023-06-21T03:38:08.498Z,92905.00
2023-06-21T03:39:08.470Z,92905.00
2023-06-21T03:40:08.456Z,92905.00
2023-06-21T03:41:08.441Z,92907.00
2023-06-21T03:42:08.424Z,92903.00
2023-06-21T03:43:08.428Z,92907.00
2023-06-21T03:44:08.399Z,92907.00
2023-06-21T03:45:08.382Z,92911.00
2023-06-21T03:46:08.414Z,92909.00
2023-06-21T03:47:08.365Z,92913.00
2023-06-21T03:48:08.396Z,92911.00
2023-06-21T03:49:08.310Z,92913.00
2023-06-21T03:50:08.316Z,92913.00
2023-06-21T03:51:08.293Z,92913.00
2023-06-21T03:52:08.291Z,92915.00
2023-06-21T03:53:08.295Z,92911.00
2023-06-21T03:54:08.256Z,92913.00
2023-06-21T03:55:08.244Z,92913.00
2023-06-21T03:56:08.225Z,92913.00
2023-06-21T03:57:08.215Z,92913.00
2023-06-21T03:58:08.208Z,92915.00
2023-06-21T03:59:08.190Z,92915.00
2023-06-21T04:00:08.240Z,92921.00
2023-06-21T04:01:08.167Z,92921.00
2023-06-21T04:02:08.192Z,92919.00
2023-06-21T04:03:08.309Z,92923.00
2023-06-21T04:04:08.149Z,92919.00
2023-06-21T04:05:08.112Z,92921.00
2023-06-21T04:06:08.092Z,92923.00
2023-06-21T04:07:08.085Z,92921.00
2023-06-21T04:08:08.076Z,92923.00
2023-06-21T04:09:08.069Z,92921.00
2023-06-21T04:10:08.048Z,92923.00
2023-06-21T04:11:08.039Z,92919.00
2023-06-21T04:12:08.025Z,92915.00
2023-06-21T04:13:08.046Z,92917.00
2023-06-21T04:14:07.999Z,92919.00
2023-06-21T04:15:07.999Z,92921.00
2023-06-21T04:16:07.967Z,92919.00
2023-06-21T04:17:07.978Z,92923.00
2023-06-21T04:18:08.006Z,92925.00
2023-06-21T04:19:07.938Z,92925.00
2023-06-21T04:20:07.921Z,92923.00
2023-06-21T04:21:07.902Z,92923.00
2023-06-21T04:22:07.903Z,92926.00
2023-06-21T04:23:07.889Z,92926.00
2023-06-21T04:24:07.889Z,92925.00
2023-06-21T04:25:07.852Z,92928.00
2023-06-21T04:26:07.840Z,92925.00
2023-06-21T04:27:07.815Z,92928.00
2023-06-21T04:28:07.796Z,92926.00
2023-06-21T04:29:07.796Z,92925.00
2023-06-21T04:30:07.762Z,92925.00
2023-06-21T04:31:07.778Z,92930.00
2023-06-21T04:32:07.732Z,92928.00
2023-06-21T04:33:07.718Z,92936.00
2023-06-21T04:34:07.714Z,92938.00
2023-06-21T04:35:07.692Z,92938.00
2023-06-21T04:36:07.696Z,92940.00
2023-06-21T04:37:07.663Z,92940.00
2023-06-21T04:38:07.650Z,92938.00
2023-06-21T04:39:07.638Z,92940.00
2023-06-21T04:40:16.389Z,92940.00
2023-06-21T04:41:08.600Z,92942.00
2023-06-21T04:42:07.564Z,92944.00
2023-06-21T04:43:07.565Z,92940.00
2023-06-21T04:44:07.505Z,92940.00
2023-06-21T04:45:07.494Z,92938.00
2023-06-21T04:46:07.495Z,92938.00
2023-06-21T04:47:07.404Z,92940.00
2023-06-21T04:48:07.429Z,92940.00
2023-06-21T04:49:07.344Z,92940.00
2023-06-21T04:50:20.238Z,92940.00
2023-06-21T04:51:08.276Z,92938.00
2023-06-21T04:52:07.245Z,92940.00
2023-06-21T04:53:07.222Z,92940.00
2023-06-21T04:54:07.255Z,92938.00
2023-06-21T04:55:07.157Z,92940.00
2023-06-21T04:56:07.127Z,92942.00
2023-06-21T04:57:07.102Z,92942.00
2023-06-21T04:58:07.106Z,92942.00
2023-06-21T04:59:07.036Z,92946.00
2023-06-21T05:00:07.010Z,92948.00
2023-06-21T05:01:06.978Z,92948.00
2023-06-21T05:02:07.041Z,92948.00
2023-06-21T05:03:07.074Z,92952.00
2023-06-21T05:04:06.894Z,92952.00
2023-06-21T05:05:06.885Z,92952.00
2023-06-21T05:06:06.839Z,92950.00
2023-06-21T05:07:06.800Z,92950.00
2023-06-21T05:08:06.788Z,92952.00
2023-06-21T05:09:06.838Z,92950.00
2023-06-21T05:10:06.724Z,92952.00
2023-06-21T05:11:06.730Z,92950.00
2023-06-21T05:12:06.699Z,92948.00
2023-06-21T05:13:06.626Z,92948.00
2023-06-21T05:14:06.612Z,92946.00
2023-06-21T05:15:07.108Z,92948.00
2023-06-21T05:16:06.518Z,92948.00
2023-06-21T05:17:06.489Z,92944.00
2023-06-21T05:18:06.509Z,92950.00
2023-06-21T05:19:06.429Z,92952.00
2023-06-21T05:20:06.384Z,92952.00
2023-06-21T05:21:06.357Z,92952.00
2023-06-21T05:22:06.349Z,92952.00
2023-06-21T05:23:06.328Z,92952.00
2023-06-21T05:24:06.318Z,92950.00
2023-06-21T05:25:06.312Z,92948.00
2023-06-21T05:26:06.302Z,92954.00
2023-06-21T05:27:06.291Z,92950.00
2023-06-21T05:28:06.316Z,92946.00
2023-06-21T05:29:06.975Z,92954.00
2023-06-21T05:30:06.296Z,92952.00
2023-06-21T05:31:06.355Z,92954.00
2023-06-21T05:32:06.286Z,92958.00
2023-06-21T05:33:06.348Z,92954.00
2023-06-21T05:34:06.260Z,92956.00
2023-06-21T05:35:06.266Z,92954.00
2023-06-21T05:36:06.248Z,92962.00
2023-06-21T05:37:06.225Z,92964.00
2023-06-21T05:38:06.226Z,92962.00
2023-06-21T05:39:06.207Z,92964.00
2023-06-21T05:40:06.197Z,92964.00
2023-06-21T05:41:06.180Z,92964.00
2023-06-21T05:42:06.229Z,92964.00
2023-06-21T05:43:06.156Z,92966.00
2023-06-21T05:44:06.140Z,92968.00
2023-06-21T05:45:06.137Z,92964.00
2023-06-21T05:46:06.138Z,92968.00
2023-06-21T05:47:06.103Z,92964.00
2023-06-21T05:48:06.157Z,92968.00
2023-06-21T05:49:06.078Z,92964.00
2023-06-21T05:50:06.078Z,92960.00
2023-06-21T05:51:06.062Z,92964.00
2023-06-21T05:52:06.052Z,92966.00
2023-06-21T05:53:06.042Z,92972.00
2023-06-21T05:54:06.027Z,92972.00
2023-06-21T05:55:06.029Z,92972.00
2023-06-21T05:56:06.009Z,92970.00
2023-06-21T05:57:05.999Z,92977.00
2023-06-21T05:58:05.979Z,92977.00
2023-06-21T05:59:05.971Z,92979.00
2023-06-21T06:00:05.953Z,92977.00
2023-06-21T06:01:15.926Z,92972.00
2023-06-21T06:02:06.971Z,92975.00
2023-06-21T06:03:05.926Z,92977.00
2023-06-21T06:04:05.901Z,92975.00
2023-06-21T06:05:05.823Z,92975.00
2023-06-21T06:06:05.801Z,92979.00
2023-06-21T06:07:05.768Z,92979.00
2023-06-21T06:08:05.736Z,92983.00
2023-06-21T06:09:05.703Z,92981.00
2023-06-21T06:10:05.692Z,92983.00
2023-06-21T06:11:05.632Z,92985.00
2023-06-21T06:12:07.233Z,92981.00
2023-06-21T06:13:05.580Z,92977.00
2023-06-21T06:14:05.559Z,92975.00
2023-06-21T06:15:05.523Z,92972.00
2023-06-21T06:16:05.508Z,92972.00
2023-06-21T06:17:05.453Z,92970.00
2023-06-21T06:18:05.442Z,92973.00
2023-06-21T06:19:05.388Z,92970.00
2023-06-21T06:20:05.354Z,92972.00
2023-06-21T06:21:05.324Z,92970.00
2023-06-21T06:22:05.291Z,92972.00
2023-06-21T06:23:05.254Z,92966.00
2023-06-21T06:24:05.213Z,92972.00
2023-06-21T06:25:05.177Z,92968.00
2023-06-21T06:26:05.162Z,92970.00
2023-06-21T06:27:05.115Z,92968.00
2023-06-21T06:28:05.133Z,92966.00
2023-06-21T06:29:05.070Z,92964.00
2023-06-21T06:30:05.038Z,92964.00
2023-06-21T06:31:05.027Z,92958.00
2023-06-21T06:32:04.972Z,92964.00
2023-06-21T06:33:04.995Z,92958.00
2023-06-21T06:34:04.934Z,92954.00
2023-06-21T06:35:04.885Z,92960.00
2023-06-21T06:36:04.863Z,92954.00
2023-06-21T06:37:13.986Z,92960.00
2023-06-21T06:38:05.776Z,92958.00
2023-06-21T06:39:04.754Z,92958.00
2023-06-21T06:40:04.724Z,92968.00
2023-06-21T06:41:04.692Z,92962.00
2023-06-21T06:42:04.664Z,92964.00
2023-06-21T06:43:04.633Z,92964.00
2023-06-21T06:44:04.597Z,92964.00
2023-06-21T06:45:04.553Z,92964.00
2023-06-21T06:46:04.534Z,92966.00
2023-06-21T06:47:04.479Z,92964.00
2023-06-21T06:48:04.509Z,92964.00
2023-06-21T06:49:04.449Z,92960.00
2023-06-21T06:50:04.442Z,92962.00
2023-06-21T06:51:05.036Z,92960.00
2023-06-21T06:52:04.453Z,92962.00
2023-06-21T06:53:04.452Z,92964.00
2023-06-21T06:54:04.463Z,92962.00
2023-06-21T06:55:04.515Z,92962.00
2023-06-21T06:56:04.531Z,92960.00
2023-06-21T06:57:04.561Z,92958.00
2023-06-21T06:58:06.563Z,92958.00
2023-06-21T06:59:04.510Z,92958.00
2023-06-21T07:00:04.443Z,92956.00
2023-06-21T07:01:04.496Z,92952.00
2023-06-21T07:02:04.452Z,92952.00
2023-06-21T07:03:04.542Z,92950.00
2023-06-21T07:04:04.587Z,92948.00
2023-06-21T07:05:04.569Z,92952.00
2023-06-21T07:06:04.590Z,92948.00
2023-06-21T07:07:04.585Z,92952.00
2023-06-21T07:08:04.614Z,92948.00
2023-06-21T07:09:04.649Z,92948.00
2023-06-21T07:10:04.675Z,92948.00
2023-06-21T07:11:04.684Z,92948.00
2023-06-21T07:12:04.714Z,92942.00
2023-06-21T07:13:04.758Z,92946.00
2023-06-21T07:14:04.776Z,92946.00
2023-06-21T07:15:04.860Z,92944.00
2023-06-21T07:16:04.784Z,92942.00
2023-06-21T07:17:04.820Z,92942.00
2023-06-21T07:18:04.980Z,92940.00
2023-06-21T07:19:04.877Z,92940.00
2023-06-21T07:20:04.930Z,92940.00
2023-06-21T07:21:04.906Z,92934.00
2023-06-21T07:22:04.909Z,92936.00
2023-06-21T07:23:05.595Z,92936.00
2023-06-21T07:24:05.949Z,92938.00
2023-06-21T07:25:04.993Z,92938.00
2023-06-21T07:26:05.069Z,92938.00
2023-06-21T07:27:05.107Z,92938.00
2023-06-21T07:28:05.098Z,92940.00
2023-06-21T07:29:05.129Z,92938.00
2023-06-21T07:30:05.223Z,92936.00
2023-06-21T07:31:05.278Z,92934.00
2023-06-21T07:32:05.226Z,92930.00
2023-06-21T07:33:05.317Z,92930.00
2023-06-21T07:34:07.939Z,92930.00
2023-06-21T07:35:06.268Z,92926.00
2023-06-21T07:36:05.237Z,92926.00
2023-06-21T07:37:05.204Z,92923.00
2023-06-21T07:38:05.163Z,92921.00
2023-06-21T07:39:05.128Z,92917.00
2023-06-21T07:40:05.100Z,92919.00
2023-06-21T07:41:05.072Z,92915.00
2023-06-21T07:42:13.401Z,92917.00
2023-06-21T07:43:06.014Z,92913.00
2023-06-21T07:44:04.988Z,92909.00
2023-06-21T07:45:05.010Z,92907.00
2023-06-21T07:46:15.057Z,92905.00
2023-06-21T07:47:05.864Z,92901.00
2023-06-21T07:48:04.822Z,92901.00
2023-06-21T07:49:04.777Z,92899.00
2023-06-21T07:50:17.098Z,92897.00
2023-06-21T07:51:05.695Z,92897.00
2023-06-21T07:52:04.650Z,92895.00
2023-06-21T07:53:04.631Z,92895.00
2023-06-21T07:54:04.674Z,92891.00
2023-06-21T07:55:05.541Z,92889.00
2023-06-21T07:56:04.495Z,92887.00
2023-06-21T07:57:04.466Z,92885.00
2023-06-21T07:58:04.428Z,92885.00
2023-06-21T07:59:04.396Z,92885.00
2023-06-21T08:00:04.400Z,92887.00
2023-06-21T08:01:04.449Z,92883.00
2023-06-21T08:02:04.477Z,92881.00
2023-06-21T08:03:04.529Z,92885.00
2023-06-21T08:04:04.533Z,92881.00
2023-06-21T08:05:04.550Z,92881.00
2023-06-21T08:06:04.569Z,92879.00
2023-06-21T08:07:04.615Z,92878.00
2023-06-21T08:08:04.649Z,92878.00
2023-06-21T08:09:04.685Z,92874.00
2023-06-21T08:10:04.724Z,92872.00
2023-06-21T08:11:04.762Z,92868.00
2023-06-21T08:12:04.785Z,92868.00
2023-06-21T08:13:05.062Z,92864.00
2023-06-21T08:14:04.867Z,92866.00
2023-06-21T08:15:04.906Z,92868.00
2023-06-21T08:16:04.937Z,92868.00
2023-06-21T08:17:04.888Z,92866.00
2023-06-21T08:18:04.935Z,92868.00
2023-06-21T08:19:04.840Z,92868.00
2023-06-21T08:20:04.811Z,92868.00
2023-06-21T08:21:04.839Z,92864.00
2023-06-21T08:22:04.733Z,92862.00
2023-06-21T08:23:04.708Z,92860.00
2023-06-21T08:24:04.658Z,92858.00
2023-06-21T08:25:05.648Z,92854.00
2023-06-21T08:26:04.580Z,92852.00
2023-06-21T08:27:04.547Z,92850.00
2023-06-21T08:28:04.499Z,92848.00
2023-06-21T08:29:04.554Z,92848.00
2023-06-21T08:30:04.420Z,92850.00
2023-06-21T08:31:04.377Z,92848.00
2023-06-21T08:32:04.387Z,92846.00
2023-06-21T08:33:04.355Z,92844.00
2023-06-21T08:34:05.140Z,92848.00
2023-06-21T08:35:04.228Z,92842.00
2023-06-21T08:36:04.193Z,92842.00
2023-06-21T08:37:04.172Z,92840.00
2023-06-21T08:38:12.111Z,92842.00
2023-06-21T08:39:05.075Z,92840.00
2023-06-21T08:40:04.185Z,92840.00
2023-06-21T08:41:03.998Z,92842.00
2023-06-21T08:42:03.952Z,92844.00
2023-06-21T08:43:03.928Z,92842.00
2023-06-21T08:44:04.903Z,92838.00
2023-06-21T08:45:03.859Z,92836.00
2023-06-21T08:46:05.914Z,92838.00
2023-06-21T08:47:03.811Z,92842.00
2023-06-21T08:48:03.794Z,92836.00
2023-06-21T08:49:03.743Z,92836.00
2023-06-21T08:50:03.712Z,92838.00
2023-06-21T08:51:03.691Z,92834.00
2023-06-21T08:52:03.666Z,92836.00
2023-06-21T08:53:03.634Z,92834.00
2023-06-21T08:54:03.612Z,92834.00
2023-06-21T08:55:03.621Z,92838.00
2023-06-21T08:56:03.566Z,92836.00
2023-06-21T08:57:03.557Z,92838.00
2023-06-21T08:58:04.586Z,92838.00
2023-06-21T08:59:03.490Z,92840.00
2023-06-21T09:00:03.438Z,92842.00
2023-06-21T09:01:03.421Z,92840.00
2023-06-21T09:02:04.041Z,92838.00
2023-06-21T09:03:03.487Z,92840.00
2023-06-21T09:04:03.528Z,92838.00
2023-06-21T09:05:03.285Z,92836.00
2023-06-21T09:06:03.143Z,92836.00
2023-06-21T09:07:03.086Z,92836.00
2023-06-21T09:08:05.148Z,92836.00
2023-06-21T09:09:03.115Z,92836.00
2023-06-21T09:10:02.947Z,92836.00
2023-06-21T09:11:02.903Z,92838.00
2023-06-21T09:12:02.878Z,92834.00
2023-06-21T09:13:02.846Z,92825.00
2023-06-21T09:14:04.495Z,92825.00
2023-06-21T09:15:02.814Z,92821.00
2023-06-21T09:16:02.754Z,92823.00
2023-06-21T09:17:02.716Z,92832.00
2023-06-21T09:18:02.787Z,92825.00
2023-06-21T09:19:02.658Z,92821.00
2023-06-21T09:20:02.646Z,92823.00
2023-06-21T09:21:02.676Z,92821.00
2023-06-21T09:22:02.705Z,92819.00
2023-06-21T09:23:02.714Z,92819.00
2023-06-21T09:24:02.733Z,92821.00
2023-06-21T09:25:02.751Z,92817.00
2023-06-21T09:26:02.747Z,92817.00
2023-06-21T09:27:02.740Z,92821.00
2023-06-21T09:28:02.740Z,92823.00
2023-06-21T09:29:02.721Z,92821.00
2023-06-21T09:30:23.194Z,92819.00
2023-06-21T09:31:03.647Z,92823.00
2023-06-21T09:32:02.594Z,92825.00
2023-06-21T09:33:02.624Z,92821.00
2023-06-21T09:34:02.542Z,92817.00
2023-06-21T09:35:02.462Z,92813.00
2023-06-21T09:36:02.441Z,92811.00
2023-06-21T09:37:02.371Z,92811.00
2023-06-21T09:38:02.333Z,92813.00
2023-06-21T09:39:02.290Z,92811.00
2023-06-21T09:40:02.291Z,92805.00
2023-06-21T09:41:02.213Z,92805.00
2023-06-21T09:42:02.191Z,92805.00
2023-06-21T09:43:02.125Z,92811.00
2023-06-21T09:44:02.157Z,92811.00
2023-06-21T09:45:02.046Z,92811.00
2023-06-21T09:46:02.032Z,92811.00
2023-06-21T09:47:01.963Z,92809.00
2023-06-21T09:48:01.949Z,92809.00
2023-06-21T09:49:01.896Z,92815.00
2023-06-21T09:50:01.866Z,92817.00
2023-06-21T09:51:01.765Z,92811.00
2023-06-21T09:52:02.583Z,92811.00
2023-06-21T09:53:01.786Z,92811.00
2023-06-21T09:54:01.637Z,92809.00
2023-06-21T09:55:01.570Z,92809.00
2023-06-21T09:56:01.548Z,92811.00
2023-06-21T09:57:01.476Z,92807.00
2023-06-21T09:58:01.425Z,92803.00
2023-06-21T09:59:01.396Z,92805.00
2023-06-21T10:00:01.427Z,92807.00
2023-06-21T10:01:01.986Z,92803.00
2023-06-21T10:02:01.444Z,92803.00
2023-06-21T10:03:01.280Z,92803.00
2023-06-21T10:04:02.239Z,92797.00
2023-06-21T10:05:01.095Z,92793.00
2023-06-21T10:06:01.033Z,92795.00
2023-06-21T10:07:02.510Z,92795.00
2023-06-21T10:08:00.941Z,92795.00
2023-06-21T10:09:00.898Z,92795.00
2023-06-21T10:10:00.843Z,92797.00
2023-06-21T10:11:00.899Z,92795.00
2023-06-21T10:12:00.748Z,92795.00
2023-06-21T10:13:00.706Z,92795.00
2023-06-21T10:14:00.668Z,92793.00
2023-06-21T10:15:00.654Z,92789.00
2023-06-21T10:16:00.581Z,92789.00
2023-06-21T10:17:00.528Z,92789.00
2023-06-21T10:18:06.131Z,92793.00
2023-06-21T10:19:01.436Z,92795.00
2023-06-21T10:20:00.380Z,92791.00
2023-06-21T10:21:00.344Z,92791.00
2023-06-21T10:22:00.299Z,92789.00
2023-06-21T10:23:00.246Z,92791.00
2023-06-21T10:24:00.207Z,92791.00
2023-06-21T10:25:01.422Z,92789.00
2023-06-21T10:26:00.116Z,92787.00
2023-06-21T10:27:00.057Z,92780.00
2023-06-21T10:28:00.031Z,92780.00
2023-06-21T10:29:00.004Z,92780.00
2023-06-21T10:30:00.000Z,92780.00
2023-06-21T10:31:00.036Z,92784.00
2023-06-21T10:32:00.011Z,92780.00
2023-06-21T10:33:00.029Z,92778.00
2023-06-21T10:33:59.995Z,92780.00
2023-06-21T10:35:00.004Z,92780.00
2023-06-21T10:35:59.970Z,92774.00
2023-06-21T10:36:59.954Z,92778.00
2023-06-21T10:37:59.953Z,92776.00
2023-06-21T10:38:59.946Z,92772.00
2023-06-21T10:40:09.347Z,92774.00
2023-06-21T10:41:00.912Z,92772.00
2023-06-21T10:41:59.910Z,92766.00
2023-06-21T10:42:59.845Z,92768.00
2023-06-21T10:43:59.789Z,92768.00
2023-06-21T10:44:59.745Z,92770.00
2023-06-21T10:45:59.714Z,92768.00
2023-06-21T10:46:59.663Z,92770.00
2023-06-21T10:47:59.675Z,92766.00
2023-06-21T10:48:59.579Z,92766.00
2023-06-21T10:49:59.579Z,92766.00
2023-06-21T10:50:59.479Z,92764.00
2023-06-21T10:51:59.443Z,92758.00
2023-06-21T10:52:59.441Z,92758.00
2023-06-21T10:53:59.464Z,92756.00
2023-06-21T10:54:59.438Z,92756.00
2023-06-21T10:55:59.399Z,92752.00
2023-06-21T10:56:59.382Z,92754.00
2023-06-21T10:57:59.392Z,92756.00
2023-06-21T10:58:59.420Z,92754.00
2023-06-21T10:59:59.436Z,92756.00
2023-06-21T11:00:59.481Z,92752.00
2023-06-21T11:01:59.535Z,92752.00
2023-06-21T11:03:00.528Z,92752.00
2023-06-21T11:03:59.450Z,92750.00
2023-06-21T11:04:59.443Z,92750.00
2023-06-21T11:05:59.329Z,92748.00
2023-06-21T11:06:59.301Z,92746.00
2023-06-21T11:07:59.258Z,92746.00
2023-06-21T11:08:59.224Z,92746.00
2023-06-21T11:09:59.168Z,92744.00
2023-06-21T11:10:59.134Z,92744.00
2023-06-21T11:11:59.086Z,92744.00
2023-06-21T11:12:59.067Z,92742.00
2023-06-21T11:13:59.026Z,92740.00
2023-06-21T11:14:59.050Z,92736.00
2023-06-21T11:15:59.087Z,92736.00
2023-06-21T11:16:59.088Z,92736.00
2023-06-21T11:17:59.205Z,92731.00
2023-06-21T11:18:59.149Z,92731.00
2023-06-21T11:19:59.217Z,92733.00
2023-06-21T11:20:59.145Z,92731.00
2023-06-21T11:21:59.165Z,92729.00
2023-06-21T11:22:59.077Z,92727.00
2023-06-21T11:23:59.056Z,92731.00
2023-06-21T11:24:59.227Z,92733.00
2023-06-21T11:25:59.116Z,92733.00
2023-06-21T11:26:59.235Z,92731.00
2023-06-21T11:27:59.149Z,92731.00
2023-06-21T11:28:59.146Z,92731.00
2023-06-21T11:29:59.200Z,92731.00
2023-06-21T11:30:59.213Z,92731.00
2023-06-21T11:31:59.180Z,92731.00
2023-06-21T11:32:59.277Z,92725.00
2023-06-21T11:33:59.174Z,92729.00
2023-06-21T11:34:59.181Z,92725.00
2023-06-21T11:35:59.156Z,92727.00
2023-06-21T11:36:59.154Z,92725.00
2023-06-21T11:37:59.154Z,92729.00
2023-06-21T11:38:59.175Z,92727.00
2023-06-21T11:39:59.161Z,92725.00
2023-06-21T11:40:59.155Z,92723.00
2023-06-21T11:41:59.144Z,92727.00
2023-06-21T11:42:59.117Z,92723.00
2023-06-21T11:43:59.080Z,92723.00